Time;durP1;ratioP1;P1;durP2;ratioP2;P2;SDS_P1;SDS_P2;PMS_P1;PMS_P2;Temp;Humidity;BMP_temperature;BMP_pressure;BME280_temperature;BME280_humidity;BME280_pressure;Samples;Min_cycle;Max_cycle;Signal;HPM_P1;HPM_P2
2022/01/25 00:09:59;;;;;;;;;81.67;68.00;;;;;2.93;66.45;102769.72;5098206;27;45938;-75
2022/01/25 00:15:13;;;;;;;;;82.00;66.00;;;;;2.97;66.99;102781.19;5102207;27;45439;-74
2022/01/25 00:28:51;;;;;;;;;83.00;64.00;;;;;3.06;67.18;102823.22;5115363;27;45549;-74
2022/01/25 00:31:17;;;;;;;;;82.75;65.25;;;;;2.83;66.17;102790.63;5113749;27;45557;-77
2022/01/25 00:33:48;;;;;;;;;81.50;65.00;;;;;3.06;66.62;102838.75;5095571;27;45305;-74
2022/01/25 00:36:17;;;;;;;;;86.00;70.50;;;;;3.07;65.95;102848.31;5098596;27;45275;-75
2022/01/25 00:38:43;;;;;;;;;81.00;64.00;;;;;2.89;65.84;102811.72;5095583;27;45480;-71
2022/01/25 00:41:09;;;;;;;;;83.25;64.25;;;;;3.13;65.86;102852.97;5095044;27;45446;-72
2022/01/25 00:43:35;;;;;;;;;81.25;67.50;;;;;2.95;65.51;102838.03;5101150;27;45390;-72
2022/01/25 00:46:06;;;;;;;;;78.67;57.67;;;;;2.88;65.30;102846.19;5117340;27;45812;-74
2022/01/25 00:48:43;;;;;;;;;83.67;65.33;;;;;2.83;66.03;102851.84;5101225;27;45546;-72
2022/01/25 00:56:19;;;;;;;;;80.33;58.33;;;;;2.37;66.79;102836.66;5101828;27;45451;-74
2022/01/25 00:58:44;;;;;;;;;78.67;60.00;;;;;2.21;67.01;102839.00;5114528;27;45346;-73
2022/01/25 01:01:10;;;;;;;;;77.00;58.67;;;;;2.25;67.30;102853.91;5099362;27;45324;-72
2022/01/25 01:03:36;;;;;;;;;73.33;54.67;;;;;1.94;67.98;102801.78;5102967;27;45522;-75
2022/01/25 01:06:03;;;;;;;;;73.00;54.33;;;;;2.13;67.75;102844.50;5112345;27;45401;-73
2022/01/25 01:08:28;;;;;;;;;74.33;57.33;;;;;2.15;67.78;102856.66;5097499;27;45737;-76
2022/01/25 01:10:54;;;;;;;;;73.67;58.00;;;;;1.93;68.01;102843.91;5089326;27;45455;-75
2022/01/25 01:16:07;;;;;;;;;67.67;51.67;;;;;1.79;69.76;102855.84;5104037;27;45470;-75
2022/01/25 01:29:29;;;;;;;;;68.67;51.33;;;;;1.77;68.80;102836.75;5084567;27;45415;-73
2022/01/25 01:32:18;;;;;;;;;61.67;46.67;;;;;1.79;68.77;102842.94;5110379;27;45610;-74
2022/01/25 01:40:35;;;;;;;;;63.00;47.33;;;;;1.76;68.56;102830.69;5098888;27;45577;-73
2022/01/25 01:45:46;;;;;;;;;63.67;51.00;;;;;1.95;68.55;102869.09;5105597;27;45466;-73
2022/01/25 01:48:26;;;;;;;;;63.00;47.00;;;;;1.87;68.86;102847.84;5096756;27;45401;-74
2022/01/25 01:50:53;;;;;;;;;57.67;43.00;;;;;2.00;68.90;102865.13;5091725;27;45595;-74
2022/01/25 01:53:18;;;;;;;;;62.00;47.00;;;;;1.87;68.69;102863.34;5086740;27;45309;-71
2022/01/25 01:55:44;;;;;;;;;51.67;33.00;;;;;0.77;69.27;102674.69;5121565;27;45967;-73
2022/01/25 01:58:09;;;;;;;;;66.00;50.00;;;;;1.87;69.79;102880.53;5121801;27;45481;-73
2022/01/25 02:00:47;;;;;;;;;63.00;48.33;;;;;1.84;69.82;102864.81;5101601;27;45387;-74
2022/01/25 02:03:13;;;;;;;;;63.00;49.00;;;;;1.86;69.54;102877.06;5098128;27;45574;-71
2022/01/25 02:05:39;;;;;;;;;65.00;47.00;;;;;1.96;69.36;102882.91;5113371;27;46566;-74
2022/01/25 02:08:06;;;;;;;;;65.00;49.00;;;;;2.02;68.72;102876.47;5098164;27;45446;-71
2022/01/25 02:10:32;;;;;;;;;61.67;49.00;;;;;1.76;68.58;102820.38;5101880;27;45494;-73
2022/01/25 02:12:58;;;;;;;;;60.67;46.67;;;;;1.91;68.53;102813.69;5117958;27;45690;-74
2022/01/25 02:15:26;;;;;;;;;59.00;45.67;;;;;1.98;67.80;102808.97;5108528;27;46826;-73
2022/01/25 02:22:22;;;;;;;;;53.00;42.67;;;;;2.49;67.55;102862.47;5097431;27;45838;-75
2022/01/25 02:23:25;;;;;;;;;53.00;42.33;;;;;2.43;67.38;102825.88;5079941;27;45578;-76
2022/01/25 02:25:54;;;;;;;;;56.00;44.00;;;;;2.45;66.71;102834.63;5118455;27;45452;-74
2022/01/25 02:28:21;;;;;;;;;57.33;45.00;;;;;2.59;67.39;102870.09;5117042;27;45598;-74
2022/01/25 02:30:47;;;;;;;;;52.33;37.67;;;;;2.31;67.97;102857.84;5121463;27;45540;-74
2022/01/25 02:33:13;;;;;;;;;54.33;43.00;;;;;2.38;67.85;102866.94;5117795;27;45522;-74
2022/01/25 02:35:40;;;;;;;;;55.33;45.33;;;;;2.20;68.02;102851.00;5082855;27;46555;-73
2022/01/25 02:38:07;;;;;;;;;58.67;45.33;;;;;2.29;67.66;102851.66;5109507;27;45722;-74
2022/01/25 02:40:33;;;;;;;;;59.33;45.67;;;;;2.07;68.26;102828.59;5098592;27;45429;-74
2022/01/25 02:42:59;;;;;;;;;61.00;44.33;;;;;2.30;67.55;102868.97;5111948;27;45348;-74
2022/01/25 02:45:32;;;;;;;;;58.00;45.00;;;;;2.05;67.41;102827.56;5099651;27;45446;-75
2022/01/25 02:50:41;;;;;;;;;56.00;40.33;;;;;2.19;67.79;102843.16;5097075;27;45659;-74
2022/01/25 02:53:07;;;;;;;;;46.67;40.00;;;;;2.43;68.07;102882.75;5097321;27;45685;-74
2022/01/25 02:55:33;;;;;;;;;53.33;42.00;;;;;2.29;68.71;102866.28;5095724;27;47136;-71
2022/01/25 02:57:58;;;;;;;;;60.00;45.00;;;;;2.15;68.75;102848.91;5116500;27;45385;-74
2022/01/25 03:00:24;;;;;;;;;56.00;43.33;;;;;2.19;68.43;102859.56;5115862;27;45536;-73
2022/01/25 03:02:50;;;;;;;;;53.67;39.33;;;;;2.09;68.64;102833.88;5118876;27;45648;-75
2022/01/25 03:05:15;;;;;;;;;62.33;45.00;;;;;2.15;68.78;102848.91;5104958;27;46054;-74
2022/01/25 03:07:43;;;;;;;;;56.00;44.33;;;;;2.09;68.68;102851.97;5101657;27;45652;-73
2022/01/25 03:10:10;;;;;;;;;59.00;44.00;;;;;1.98;68.89;102834.81;5118223;27;45336;-74
2022/01/25 03:12:46;;;;;;;;;57.67;43.00;;;;;1.84;68.84;102803.69;5118197;27;45426;-74
2022/01/25 03:17:50;;;;;;;;;58.00;40.33;;;;;2.29;68.94;102861.09;5109007;27;45515;-74
2022/01/25 03:20:34;;;;;;;;;52.00;42.33;;;;;2.39;68.19;102871.28;5121778;27;45565;-74
2022/01/25 03:23:05;;;;;;;;;56.33;42.33;;;;;2.00;68.13;102817.72;5110566;27;45671;-74
2022/01/25 03:25:31;;;;;;;;;53.33;41.33;;;;;2.19;68.30;102849.22;5111031;27;46547;-74
2022/01/25 03:27:57;;;;;;;;;57.67;45.33;;;;;2.08;68.34;102820.03;5120844;27;45694;-74
2022/01/25 03:30:24;;;;;;;;;60.33;45.00;;;;;2.28;68.50;102869.66;5103059;27;45475;-74
2022/01/25 03:32:50;;;;;;;;;57.67;43.00;;;;;1.01;68.90;102657.50;5103058;27;45567;-75
2022/01/25 03:35:16;;;;;;;;;67.33;48.67;;;;;1.96;69.21;102851.88;5120933;27;46195;-74
2022/01/25 03:37:42;;;;;;;;;60.00;46.00;;;;;1.84;69.68;102846.75;5120684;27;45949;-75
2022/01/25 03:40:08;;;;;;;;;58.33;45.00;;;;;1.49;69.61;102780.53;5118768;27;45820;-72
2022/01/25 03:42:37;;;;;;;;;55.67;45.33;;;;;1.89;69.35;102827.28;5114986;27;45597;-75
2022/01/25 03:45:05;;;;;;;;;62.67;48.67;;;;;1.51;69.74;102760.00;5101966;27;45553;-73
2022/01/25 03:47:44;;;;;;;;;59.33;42.67;;;;;1.56;69.25;102771.53;5096554;27;45494;-74
2022/01/25 03:50:09;;;;;;;;;62.33;45.33;;;;;1.87;70.33;102834.03;5110034;27;45383;-73
2022/01/25 03:52:37;;;;;;;;;58.00;44.00;;;;;1.55;69.50;102778.41;5116070;27;45369;-74
2022/01/25 03:55:04;;;;;;;;;60.67;44.00;;;;;1.85;70.50;102836.53;5103057;27;46241;-73
2022/01/25 03:57:30;;;;;;;;;55.33;37.33;;;;;1.39;70.19;102762.59;5100233;27;45854;-76
2022/01/25 04:00:00;;;;;;;;;57.33;45.00;;;;;1.27;70.60;102757.44;5113852;27;45498;-75
2022/01/25 04:02:30;;;;;;;;;53.67;43.00;;;;;1.63;71.15;102841.81;5120481;27;45440;-72
2022/01/25 04:04:57;;;;;;;;;55.00;39.67;;;;;1.00;70.15;102717.66;5109423;27;45425;-73
2022/01/25 04:07:31;;;;;;;;;53.67;41.33;;;;;1.26;70.40;102753.97;5095407;27;45477;-75
2022/01/25 04:09:56;;;;;;;;;55.00;40.67;;;;;1.43;70.46;102778.41;5095202;27;45492;-73
2022/01/25 04:12:22;;;;;;;;;54.33;42.33;;;;;1.76;70.33;102845.31;5091686;27;45669;-73
2022/01/25 04:14:48;;;;;;;;;61.33;45.67;;;;;1.67;70.26;102851.59;5088890;27;45933;-74
2022/01/25 04:17:18;;;;;;;;;59.00;46.00;;;;;1.39;71.33;102824.56;5097059;27;45672;-75
2022/01/25 04:19:56;;;;;;;;;62.67;46.00;;;;;0.98;71.11;102776.88;5099647;27;45371;-76
2022/01/25 04:25:14;;;;;;;;;59.33;44.67;;;;;1.20;70.99;102774.16;5095306;27;45706;-75
2022/01/25 04:27:40;;;;;;;;;50.33;41.67;;;;;1.83;70.64;102863.03;5093809;27;45423;-72
2022/01/25 04:30:07;;;;;;;;;61.00;42.00;;;;;1.09;70.93;102718.28;5107493;27;45538;-75
2022/01/25 04:32:43;;;;;;;;;52.67;41.33;;;;;1.35;70.25;102727.00;5114285;27;45658;-73
2022/01/25 04:35:27;;;;;;;;;60.67;44.33;;;;;2.23;70.61;102860.66;5114744;27;45484;-73
2022/01/25 04:51:44;;;;;;;;;59.33;42.00;;;;;2.89;68.03;102855.72;5118167;27;45291;-72
2022/01/25 04:56:45;;;;;;;;;55.33;41.67;;;;;3.00;67.78;102843.53;5103769;27;46089;-74
2022/01/25 05:01:56;;;;;;;;;35.33;24.00;;;;;2.28;68.35;102764.53;5119682;27;45473;-73
2022/01/25 05:04:27;;;;;;;;;62.00;47.67;;;;;1.66;68.89;102679.31;5114294;27;45458;-74
2022/01/25 05:06:57;;;;;;;;;62.33;46.33;;;;;2.20;69.50;102778.63;5094084;27;45651;-70
2022/01/25 05:09:22;;;;;;;;;57.67;44.00;;;;;2.04;68.38;102756.00;5096540;27;45611;-73
2022/01/25 05:11:50;;;;;;;;;59.33;41.33;;;;;2.11;69.86;102778.91;5089571;27;45434;-73
2022/01/25 05:14:32;;;;;;;;;60.67;44.00;;;;;2.58;69.60;102857.03;5078915;27;45505;-73
2022/01/25 05:17:01;;;;;;;;;63.00;47.33;;;;;2.15;69.13;102784.28;5108574;27;46235;-72
2022/01/25 05:24:37;;;;;;;;;67.00;48.00;;;;;2.68;69.65;102862.97;5096885;27;45448;-73
2022/01/25 05:27:04;;;;;;;;;64.00;48.67;;;;;2.40;69.05;102817.91;5081409;27;45488;-72
2022/01/25 05:29:30;;;;;;;;;67.67;46.67;;;;;2.63;70.18;102851.38;5097262;27;45721;-73
2022/01/25 05:31:56;;;;;;;;;64.00;44.67;;;;;2.30;69.67;102782.72;5082198;27;45341;-72
2022/01/25 05:34:23;;;;;;;;;56.67;43.67;;;;;2.83;68.54;102851.84;5078154;27;45539;-73
2022/01/25 05:36:48;;;;;;;;;54.33;46.00;;;;;2.68;68.68;102820.66;5106279;27;47990;-73
2022/01/25 05:39:19;;;;;;;;;63.67;45.00;;;;;1.85;68.97;102676.31;5098896;27;45699;-73
2022/01/25 05:41:53;;;;;;;;;58.33;45.33;;;;;2.93;68.96;102852.56;5117188;27;45438;-73
2022/01/25 05:46:53;;;;;;;;;64.00;48.33;;;;;3.03;67.85;102874.78;5088110;27;45422;-73
2022/01/25 05:49:19;;;;;;;;;63.00;47.67;;;;;2.56;68.33;102779.31;5108133;27;45722;-73
2022/01/25 05:51:45;;;;;;;;;62.00;47.00;;;;;3.09;68.49;102859.66;5118822;27;45536;-71
2022/01/25 05:54:12;;;;;;;;;69.33;49.00;;;;;3.01;68.12;102863.41;5108385;27;45442;-73
2022/01/25 05:56:41;;;;;;;;;61.00;48.67;;;;;3.00;68.25;102866.81;5088912;27;45582;-73
2022/01/25 05:59:07;;;;;;;;;60.67;45.67;;;;;2.53;68.32;102780.00;5087287;27;45531;-72
2022/01/25 06:01:35;;;;;;;;;66.67;47.67;;;;;2.20;68.71;102731.19;5089704;27;45517;-75
2022/01/25 06:04:00;;;;;;;;;62.33;47.33;;;;;2.30;69.25;102767.22;5098604;27;45333;-73
2022/01/25 06:06:28;;;;;;;;;70.00;51.67;;;;;2.76;69.34;102859.19;5090458;27;45546;-74
2022/01/25 06:08:54;;;;;;;;;66.00;49.00;;;;;2.20;69.01;102757.03;5096066;27;45500;-73
2022/01/25 06:11:20;;;;;;;;;64.33;49.33;;;;;1.94;69.54;102724.25;5103506;27;45427;-72
2022/01/25 06:13:46;;;;;;;;;66.33;50.33;;;;;2.41;69.72;102802.47;5103118;27;45451;-74
2022/01/25 06:16:12;;;;;;;;;66.67;49.00;;;;;1.95;69.33;102733.81;5115463;27;46151;-73
2022/01/25 06:18:41;;;;;;;;;65.67;46.67;;;;;2.73;70.21;102861.59;5084754;27;45453;-75
2022/01/25 06:21:07;;;;;;;;;67.00;48.33;;;;;1.88;69.90;102714.38;5090709;27;45986;-75
2022/01/25 06:23:32;;;;;;;;;65.00;51.00;;;;;2.13;69.48;102750.56;5106864;27;45507;-74
2022/01/25 06:25:58;;;;;;;;;67.33;48.33;;;;;2.82;69.38;102860.41;5114592;27;46303;-71
2022/01/25 06:28:24;;;;;;;;;65.67;48.33;;;;;2.50;70.15;102815.13;5113318;27;45519;-74
2022/01/25 06:30:50;;;;;;;;;62.00;47.67;;;;;2.45;70.31;102824.28;5106339;27;45429;-72
2022/01/25 06:33:15;;;;;;;;;70.33;50.00;;;;;2.76;69.96;102864.38;5099629;27;46122;-74
2022/01/25 06:35:44;;;;;;;;;69.33;51.33;;;;;2.74;69.97;102872.81;5095089;27;46616;-72
2022/01/25 06:38:10;;;;;;;;;72.00;52.33;;;;;2.76;70.14;102873.84;5093717;27;45432;-75
2022/01/25 06:40:35;;;;;;;;;68.67;48.33;;;;;2.62;70.87;102877.16;5096790;27;45733;-76
2022/01/25 06:43:01;;;;;;;;;68.67;51.67;;;;;2.46;70.51;102854.50;5098384;27;45602;-74
2022/01/25 06:45:27;;;;;;;;;64.00;48.33;;;;;2.68;70.17;102872.41;5114961;27;47135;-76
2022/01/25 06:47:53;;;;;;;;;72.33;53.33;;;;;1.62;69.74;102674.72;5097464;27;45377;-75
2022/01/25 06:50:22;;;;;;;;;62.33;48.00;;;;;2.16;69.86;102763.72;5112906;27;45427;-72
2022/01/25 06:52:47;;;;;;;;;66.00;46.67;;;;;2.65;69.80;102828.22;5096828;27;45367;-72
2022/01/25 06:55:17;;;;;;;;;63.00;47.67;;;;;2.84;70.37;102858.81;5094553;27;47777;-73
2022/01/25 06:57:43;;;;;;;;;72.00;52.67;;;;;2.74;70.01;102842.66;5100318;27;45401;-73
2022/01/25 07:00:15;;;;;;;;;65.00;50.00;;;;;2.76;70.19;102861.78;5101673;27;45364;-75
2022/01/25 07:02:41;;;;;;;;;67.67;51.33;;;;;2.79;70.41;102861.09;5097920;27;45462;-74
2022/01/25 07:05:07;;;;;;;;;65.00;49.33;;;;;2.18;69.75;102763.78;5115444;27;45505;-74
2022/01/25 07:07:34;;;;;;;;;64.33;49.00;;;;;2.12;69.63;102749.66;5103809;27;45533;-73
2022/01/25 07:10:00;;;;;;;;;76.00;55.00;;;;;2.64;70.62;102842.84;5103653;27;45329;-75
2022/01/25 07:12:26;;;;;;;;;63.00;48.00;;;;;2.69;70.74;102864.75;5116486;27;45480;-74
2022/01/25 07:14:51;;;;;;;;;71.33;52.00;;;;;2.66;70.12;102871.44;5104956;27;46577;-72
2022/01/25 07:17:17;;;;;;;;;71.00;53.67;;;;;2.13;70.66;102776.41;5103991;27;45586;-72
2022/01/25 07:19:43;;;;;;;;;66.00;52.00;;;;;1.94;71.13;102769.06;5102209;27;45417;-72
2022/01/25 07:22:09;;;;;;;;;64.33;49.67;;;;;2.58;70.34;102846.69;5117292;27;45564;-73
2022/01/25 07:24:35;;;;;;;;;61.33;48.33;;;;;2.26;70.96;102801.44;5107333;27;46200;-73
2022/01/25 07:27:00;;;;;;;;;67.67;51.33;;;;;2.18;70.98;102794.81;5095891;27;45431;-72
2022/01/25 07:29:27;;;;;;;;;69.00;49.00;;;;;2.69;70.67;102892.31;5100948;27;45517;-73
2022/01/25 07:31:55;;;;;;;;;73.00;52.00;;;;;2.05;71.16;102791.38;5116898;27;45516;-73
2022/01/25 07:34:21;;;;;;;;;67.33;51.67;;;;;1.94;71.32;102781.97;5116065;27;45455;-74
2022/01/25 07:36:46;;;;;;;;;71.00;53.00;;;;;1.79;71.63;102779.22;5101146;27;45848;-74
2022/01/25 07:39:13;;;;;;;;;66.00;49.00;;;;;2.22;71.79;102852.03;5101062;27;45833;-74
2022/01/25 07:41:39;;;;;;;;;62.33;48.00;;;;;2.10;71.98;102844.31;5094574;27;45723;-72
2022/01/25 07:44:05;;;;;;;;;64.00;49.00;;;;;2.48;72.49;102889.16;5095652;27;45500;-74
2022/01/25 07:46:32;;;;;;;;;69.33;51.33;;;;;1.92;72.61;102801.66;5101176;27;45568;-74
2022/01/25 07:48:58;;;;;;;;;72.67;51.00;;;;;2.59;71.51;102905.41;5101767;27;45425;-74
2022/01/25 07:51:28;;;;;;;;;69.00;52.67;;;;;2.50;71.84;102887.56;5101952;27;45424;-76
2022/01/25 07:53:55;;;;;;;;;67.67;51.67;;;;;2.39;72.30;102873.88;5114826;27;47666;-75
2022/01/25 07:56:22;;;;;;;;;67.33;52.00;;;;;2.57;72.32;102918.25;5101366;27;45420;-75
2022/01/25 07:58:47;;;;;;;;;70.00;51.33;;;;;2.55;72.16;102909.47;5098924;27;45719;-74
2022/01/25 08:01:14;;;;;;;;;65.00;50.00;;;;;1.98;71.66;102816.72;5116881;27;45644;-74
2022/01/25 08:03:40;;;;;;;;;74.33;53.00;;;;;2.13;71.56;102831.59;5113591;27;46532;-73
2022/01/25 08:06:07;;;;;;;;;66.67;51.00;;;;;2.50;71.80;102895.34;5086892;27;45441;-74
2022/01/25 08:08:41;;;;;;;;;63.67;49.67;;;;;2.69;72.03;102913.91;5091336;27;45463;-74
2022/01/25 08:11:07;;;;;;;;;64.67;50.33;;;;;2.17;71.51;102822.38;5083944;27;45345;-74
2022/01/25 08:13:36;;;;;;;;;63.33;48.33;;;;;2.00;71.50;102799.63;5115224;27;47792;-74
2022/01/25 08:16:02;;;;;;;;;70.67;51.33;;;;;2.23;71.49;102816.72;5104321;27;45403;-74
2022/01/25 08:18:28;;;;;;;;;63.33;49.00;;;;;2.53;71.53;102883.50;5094493;27;46024;-75
2022/01/25 08:20:53;;;;;;;;;64.00;49.33;;;;;2.83;70.32;102921.75;5095348;27;45937;-75
2022/01/25 08:23:19;;;;;;;;;64.00;49.33;;;;;2.27;71.01;102824.78;5123689;27;45615;-75
2022/01/25 08:25:45;;;;;;;;;69.00;48.67;;;;;2.59;70.49;102876.94;5106083;27;45509;-76
2022/01/25 08:28:10;;;;;;;;;70.00;49.33;;;;;2.42;71.12;102856.00;5095096;27;45556;-76
2022/01/25 08:30:40;;;;;;;;;61.33;48.00;;;;;2.80;71.16;102911.16;5087014;27;45452;-74
2022/01/25 08:33:05;;;;;;;;;62.33;45.67;;;;;2.67;70.50;102857.69;5095809;27;47654;-74
2022/01/25 08:35:31;;;;;;;;;68.33;46.33;;;;;2.10;70.34;102755.53;5098775;27;45473;-74
2022/01/25 08:37:57;;;;;;;;;60.67;46.33;;;;;2.57;69.26;102804.41;5099243;27;45529;-74
2022/01/25 08:40:22;;;;;;;;;62.33;46.33;;;;;3.31;69.43;102918.97;5090205;27;45842;-75
2022/01/25 08:42:48;;;;;;;;;63.33;47.00;;;;;2.78;69.73;102820.50;5074642;27;46600;-73
2022/01/25 08:45:14;;;;;;;;;62.00;46.33;;;;;2.42;69.07;102747.38;5091272;27;45505;-75
2022/01/25 08:47:40;;;;;;;;;60.00;47.67;;;;;3.46;68.83;102926.84;5097594;27;45390;-74
2022/01/25 08:50:10;;;;;;;;;61.00;47.67;;;;;3.22;68.44;102858.78;5081821;27;45875;-75
2022/01/25 08:52:37;;;;;;;;;63.67;46.33;;;;;3.30;68.59;102875.75;5099322;27;45439;-76
2022/01/25 08:55:06;;;;;;;;;63.00;46.00;;;;;3.33;68.32;102870.75;5083957;27;45529;-74
2022/01/25 08:57:32;;;;;;;;;60.67;46.00;;;;;3.59;68.56;102911.31;5084683;27;45484;-73
2022/01/25 08:59:58;;;;;;;;;63.67;48.00;;;;;3.61;68.35;102914.00;5105622;27;45465;-75
2022/01/25 09:02:23;;;;;;;;;59.67;45.33;;;;;3.38;68.07;102877.13;5090564;27;45953;-76
2022/01/25 09:04:49;;;;;;;;;62.00;46.00;;;;;2.85;68.00;102788.13;5104067;27;45617;-74
2022/01/25 09:07:15;;;;;;;;;54.00;42.00;;;;;3.50;67.63;102891.69;5117110;27;45565;-73
2022/01/25 09:09:41;;;;;;;;;64.00;45.33;;;;;3.18;67.98;102847.34;5099146;27;45447;-75
2022/01/25 09:12:10;;;;;;;;;61.00;48.00;;;;;3.68;67.86;102923.06;5090386;27;45529;-72
2022/01/25 09:14:35;;;;;;;;;61.33;47.67;;;;;3.21;67.68;102836.28;5101520;27;45520;-76
2022/01/25 09:17:02;;;;;;;;;62.00;48.00;;;;;3.59;67.80;102918.19;5115572;27;45570;-73
2022/01/25 09:19:28;;;;;;;;;63.00;46.00;;;;;3.57;67.69;102924.97;5109164;27;45543;-74
2022/01/25 09:21:53;;;;;;;;;69.00;49.33;;;;;2.98;68.11;102846.00;5096238;27;46267;-73
2022/01/25 09:24:19;;;;;;;;;70.67;52.33;;;;;3.09;69.85;102932.16;5099284;27;45340;-71
2022/01/25 09:26:45;;;;;;;;;67.67;49.00;;;;;2.68;69.80;102877.56;5102028;27;45519;-74
2022/01/25 09:29:11;;;;;;;;;67.67;50.67;;;;;2.84;70.12;102924.41;5097764;27;45417;-74
2022/01/25 09:31:36;;;;;;;;;67.33;49.67;;;;;2.95;70.37;102931.22;5096914;27;46358;-74
2022/01/25 09:34:02;;;;;;;;;68.33;50.00;;;;;3.03;70.14;102959.34;5101936;27;45369;-73
2022/01/25 09:36:27;;;;;;;;;65.33;50.33;;;;;3.02;70.82;102945.50;5117470;27;45509;-74
2022/01/25 09:38:55;;;;;;;;;61.00;48.33;;;;;2.47;70.28;102859.81;5091698;27;45537;-75
2022/01/25 09:41:21;;;;;;;;;66.33;48.00;;;;;2.71;70.39;102917.50;5117913;27;45292;-74
2022/01/25 09:43:46;;;;;;;;;63.33;45.67;;;;;3.04;70.18;102955.94;5102645;27;45474;-74
2022/01/25 09:46:12;;;;;;;;;62.67;47.00;;;;;3.05;70.18;102949.97;5110773;27;46067;-75
2022/01/25 09:48:38;;;;;;;;;62.00;48.33;;;;;2.72;70.41;102895.09;5095250;27;45456;-75
2022/01/25 09:51:08;;;;;;;;;70.33;52.00;;;;;2.99;70.05;102945.28;5095036;27;45720;-74
2022/01/25 09:53:33;;;;;;;;;59.00;46.00;;;;;2.84;70.48;102901.13;5096494;27;45411;-76
2022/01/25 09:56:00;;;;;;;;;65.33;49.33;;;;;2.68;70.00;102874.97;5093230;27;45437;-76
2022/01/25 09:58:25;;;;;;;;;65.00;50.00;;;;;3.13;69.36;102939.34;5094444;27;45397;-74
2022/01/25 10:00:56;;;;;;;;;62.33;47.67;;;;;3.16;69.09;102957.69;5096269;27;47017;-74
2022/01/25 10:03:29;;;;;;;;;66.00;48.00;;;;;2.59;69.65;102836.47;5095907;27;45455;-76
2022/01/25 10:05:58;;;;;;;;;68.00;49.00;;;;;3.34;69.64;102955.41;5094239;27;45478;-74
2022/01/25 10:08:26;;;;;;;;;63.67;47.67;;;;;3.00;69.42;102887.53;5094302;27;46000;-75
2022/01/25 10:11:04;;;;;;;;;66.00;47.00;;;;;2.97;69.21;102859.75;5093828;27;46144;-74
2022/01/25 10:13:34;;;;;;;;;69.00;49.67;;;;;2.82;69.05;102832.81;5094816;27;45496;-74
2022/01/25 10:16:05;;;;;;;;;59.33;46.00;;;;;3.47;67.86;102904.44;5098913;27;45428;-76
2022/01/25 10:18:44;;;;;;;;;63.00;47.67;;;;;3.74;67.64;102954.56;5101840;27;45452;-74
2022/01/25 10:21:34;;;;;;;;;62.00;46.00;;;;;3.80;68.02;102950.69;5101867;27;46274;-74
2022/01/25 10:24:08;;;;;;;;;59.33;47.00;;;;;3.84;68.29;102954.38;5109252;27;45523;-75
2022/01/25 10:26:40;;;;;;;;;60.00;45.33;;;;;3.88;67.64;102956.38;5097625;27;45408;-74
2022/01/25 10:29:08;;;;;;;;;62.00;45.67;;;;;3.26;67.79;102847.84;5096038;27;45397;-74
2022/01/25 10:31:39;;;;;;;;;61.00;47.33;;;;;3.08;67.74;102813.84;5096682;27;45534;-74
2022/01/25 10:34:10;;;;;;;;;56.67;44.00;;;;;3.86;67.45;102950.19;5096798;27;45510;-75
2022/01/25 10:36:45;;;;;;;;;59.33;46.00;;;;;3.66;67.92;102924.69;5097063;27;45486;-74
2022/01/25 10:39:28;;;;;;;;;64.67;47.00;;;;;3.59;67.44;102888.00;5097701;27;45477;-75
2022/01/25 10:42:08;;;;;;;;;63.33;49.00;;;;;3.95;67.73;102973.22;5097394;27;45456;-75
2022/01/25 10:44:58;;;;;;;;;60.33;46.00;;;;;3.69;67.63;102930.94;5097561;27;45553;-76
2022/01/25 10:47:49;;;;;;;;;62.67;48.67;;;;;3.93;68.19;102965.34;5097691;27;45784;-74
2022/01/25 10:50:21;;;;;;;;;61.00;44.67;;;;;3.54;67.23;102899.75;5100101;27;45977;-75
2022/01/25 10:53:02;;;;;;;;;62.33;46.00;;;;;3.52;67.14;102878.03;5097892;27;46506;-76
2022/01/25 10:56:00;;;;;;;;;63.00;46.67;;;;;4.03;67.15;102970.34;5097810;27;45352;-75
2022/01/25 10:58:27;;;;;;;;;58.67;46.00;;;;;3.51;67.72;102893.47;5074560;27;45505;-74
2022/01/25 11:00:53;;;;;;;;;60.33;47.00;;;;;3.59;67.74;102893.19;5105333;27;45398;-76
2022/01/25 11:03:28;;;;;;;;;65.33;47.33;;;;;4.02;67.61;102962.44;5097779;27;45513;-76
2022/01/25 11:05:54;;;;;;;;;58.00;48.00;;;;;3.96;67.94;102964.63;5095391;27;45586;-75
2022/01/25 11:08:22;;;;;;;;;67.00;47.33;;;;;3.70;68.32;102939.63;5097106;27;45586;-76
2022/01/25 11:10:57;;;;;;;;;66.00;49.33;;;;;3.52;68.59;102900.44;5099135;27;45520;-74
2022/01/25 11:16:00;;;;;;;;;59.00;46.00;;;;;3.32;67.32;102856.00;5100909;27;45475;-74
2022/01/25 11:18:26;;;;;;;;;61.33;48.67;;;;;3.94;67.82;102948.06;5097169;27;45471;-77
2022/01/25 11:20:54;;;;;;;;;57.00;43.67;;;;;3.23;67.28;102802.69;5096744;27;45483;-77
2022/01/25 11:23:20;;;;;;;;;65.67;47.00;;;;;3.68;66.93;102884.19;5096931;27;46092;-78
2022/01/25 11:25:48;;;;;;;;;62.67;47.67;;;;;4.17;67.24;102957.34;5096303;27;45313;-78
2022/01/25 11:28:15;;;;;;;;;67.00;48.00;;;;;3.63;67.20;102845.06;5096708;27;45309;-77
2022/01/25 11:30:43;;;;;;;;;61.25;45.00;;;;;4.11;67.48;102913.78;5097508;27;45493;-75
2022/01/25 11:33:10;;;;;;;;;57.67;45.67;;;;;4.41;66.46;102960.59;5097973;27;46281;-78
2022/01/25 11:35:37;;;;;;;;;63.67;47.33;;;;;3.99;66.71;102879.28;5100868;27;45471;-76
2022/01/25 11:38:05;;;;;;;;;62.67;48.67;;;;;4.17;66.58;102911.53;5100920;27;45446;-76
2022/01/25 11:40:34;;;;;;;;;61.67;48.00;;;;;4.47;65.96;102942.81;5101084;27;45369;-77
2022/01/25 11:43:08;;;;;;;;;61.33;48.00;;;;;3.93;65.55;102842.59;5099806;27;46141;-77
2022/01/25 11:45:41;;;;;;;;;70.75;49.75;;;;;4.38;65.85;102912.00;5096122;27;45538;-77
2022/01/25 11:48:07;;;;;;;;;65.67;47.67;;;;;4.63;65.80;102955.94;5097844;27;45767;-76
2022/01/25 11:50:39;;;;;;;;;63.00;47.67;;;;;4.65;66.16;102956.94;5099425;27;45459;-76
2022/01/25 11:53:07;;;;;;;;;51.67;37.67;;;;;4.70;65.40;102952.03;5100442;27;45490;-77
2022/01/25 11:55:48;;;;;;;;;61.33;48.00;;;;;4.49;65.32;102902.28;5104971;27;45356;-76
2022/01/25 11:58:26;;;;;;;;;66.00;50.00;;;;;4.79;65.87;102943.88;5101768;27;45508;-74
2022/01/25 12:00:55;;;;;;;;;65.33;49.00;;;;;4.81;65.17;102942.28;5099999;27;45412;-75
2022/01/25 12:03:31;;;;;;;;;60.75;45.75;;;;;4.84;65.11;102940.78;5098779;27;45499;-78
2022/01/25 12:06:26;;;;;;;;;59.00;44.50;;;;;4.35;64.77;102861.63;5099644;27;45423;-76
2022/01/25 12:09:18;;;;;;;;;65.67;48.00;;;;;4.83;65.00;102927.69;5097214;27;45397;-75
2022/01/25 12:11:59;;;;;;;;;57.00;44.75;;;;;4.24;67.21;102817.75;5094806;27;45508;-76
2022/01/25 12:14:41;;;;;;;;;57.25;42.75;;;;;4.84;67.98;102906.09;5096270;27;46686;-75
2022/01/25 12:17:06;;;;;;;;;63.67;44.00;;;;;5.20;67.60;102941.19;5096477;27;45299;-77
2022/01/25 12:19:39;;;;;;;;;60.25;46.75;;;;;5.29;65.35;102920.94;5098941;27;45393;-74
2022/01/25 12:22:15;;;;;;;;;66.00;49.67;;;;;4.80;65.00;102832.34;5097570;27;45304;-78
2022/01/25 12:24:46;;;;;;;;;66.25;50.25;;;;;5.38;64.65;102915.38;5095966;27;45366;-74
2022/01/25 12:27:26;;;;;;;;;59.67;44.00;;;;;5.40;64.26;102920.66;5094887;27;45539;-77
2022/01/25 12:30:09;;;;;;;;;58.00;43.33;;;;;5.04;63.88;102865.75;5095370;27;45411;-77
2022/01/25 12:32:47;;;;;;;;;66.50;47.00;;;;;4.73;63.76;102819.81;5099517;27;45284;-78
2022/01/25 12:35:15;;;;;;;;;64.67;48.00;;;;;5.24;64.26;102905.88;5097215;27;45369;-76
2022/01/25 12:37:53;;;;;;;;;64.00;49.25;;;;;5.20;64.53;102914.31;5095167;27;45684;-77
2022/01/25 12:40:32;;;;;;;;;65.67;49.00;;;;;4.91;64.40;102861.53;5095719;27;45525;-76
2022/01/25 12:43:18;;;;;;;;;67.33;49.67;;;;;5.18;63.82;102898.63;5094600;27;45401;-77
2022/01/25 12:45:48;;;;;;;;;67.00;49.33;;;;;5.00;63.62;102853.38;5095425;27;45344;-76
2022/01/25 12:48:16;;;;;;;;;61.67;47.33;;;;;5.14;64.32;102874.97;5095188;27;45603;-77
2022/01/25 12:50:49;;;;;;;;;69.67;50.00;;;;;5.19;63.48;102878.75;5095345;27;45342;-78
2022/01/25 12:53:19;;;;;;;;;65.00;47.67;;;;;4.34;63.72;102744.00;5098413;27;45534;-77
2022/01/25 12:55:47;;;;;;;;;67.00;49.00;;;;;5.32;63.82;102892.53;5095858;27;46212;-76